Pagrindinis puslapis
METAR-TAF:

METAR-TAF

Oro uostai :

Karalienės Alijos tarptautinis oro uostas

Amanas-Queen Alia, Jordanija

platuma: 31-40N, ilguma: 035-58E, Aukštis: 721 m

Dabartinis oras

Ataskaita buvo paskelbta 33 minutes, ne 04:00 UTC
Ramus vėjas
Temperatūra 13°C
Drėgmė 72%
Slėgis 1019 hPa
Matomumas: 4000 m
migla

METAR: OJAI 300400Z 00000KT 4000 HZ NSC 13/08 Q1019 NOSIG

Laikas: 06:33 (04:33 UTC)

Prognozė

Ataskaita buvo paskelbta 5 valandos ir 33 minutes, ne 23:00 UTC
Prognozė galioja nuo 30 metu 00 UTC su 31 metu 06 UTC
Vėjas 3 kt nuo kintamojo kryptimis
Matomumas: 5000 m
migla
Laikinai
nuo 30 metu 10 UTC su 30 metu 18 UTC
Vėjas 12 kt iš Vakarų

TAF: OJAI 292300Z 3000/3106 VRB03KT 5000 HZ NSC TEMPO 3010/3018 27012KT

Orai ataskaitas ir orų prognozės (METAR, TAF).

turimą stotys yra geltonos ir raudonos taškus žemėlapyje.

Perkelti pele per norėdami pamatyti stoties vardą.

Tada spustelėkite, norėdami matyti oro stebėjimo ir prognozės.

Norėdami pakeisti žemėlapį: spustelėkite ant žalios mygtukų su juodo kryžiaus žemyn,; žalią mygtuką su brūkšneliu, jei norite nutolinti; arba žalių rodyklių gretimoms žemėlapius.


METAR-TAF: